X  CloseMetar Aviation Weather Data     EBBR Brussels

Temperature

11°C Temperature

10°C Dewpoint

94% Humidity



Wind

 8 KM/H

 5 MPH

 2 M/S

 4 KTS



90°
Due East
Current Conditions

Clear Clear
Pressure 1020.92 (hPa) - 30.15 (in)
Visibility 6.2 (mi) - 10 (km)
Airport
Airport-code EBBR

Location Brussels 14 (km)

Metar:
EBBR 222320Z 09004KT CAVOK 11/10 Q1021 NOSIG

Time: 2019-10-23 01:20